Главная страница
METAR-TAF:

METAR-TAF

Аэропорты :

Уфа, Россия

широта: 54-43-48N, долгота: 055-55-48E, высота над уровнем моря: м

Текущие метеонаблюдения

Эта сводка был подготовлена 19 минут назад, в 07:00 UTC
Ветер 2 Узел переменных направлений
Температура 19°C
Влажность 40%
Давление 1027 hPa
Видимость 10 км и более
Нет облачности ниже 1500 м, и нет кучево-дождевой облачности

METAR: UWUU 290700Z VRB01MPS CAVOK 19/05 Q1027 R14R/0///60 NOSIG RMK QFE760/1014

Время: 12:19 (07:19 UTC)

Прогноз

Эта сводка был подготовлена 2 часа и 28 минут назад, в 04:51 UTC
Прогноз действительный с 29-го 06 UTC до 30-го 06 UTC
Ветер 8 Узел от западный с порывами до 17 Узел
Видимость 10 км и более
Рассеянная облачность на высоте 3000 фута
временами
С 29-го 06 UTC до 29-го 12 UTC
Ветер 2 Узел переменных направлений
изменения
С 29-го 12 UTC до 29-го 14 UTC
Ветер 8 Узел от северо-северо-восточный с порывами до 17 Узел

TAF: UWUU 290451Z 2906/3006 28004G09MPS 9999 BKN030 TEMPO 2906/2912 VRB01MPS BECMG 2912/2914 03004G09MPS

Метеонаблюдения и прогнозы для более 4000 аэропортов (сводки METAR и TAF).

Имеющиеся станции представлены на карте желтыми и красными точками.

Чтобы увидеть название станции, наведите на нее мышь.

Затем щелкните, чтобы увидеть метеонаблюдения и метеопрогнозы.

Управление картой: чтобы увеличить масштаб, щелкните зеленые кнопки с черным крестиком; чтобы уменьшить масштаб, щелкните зеленую кнопку с тире; для просмотра соседних карт щелкайте зеленые стрелки.


METAR-TAF: